Black River (Missouri), Poplar Bluff (07063000)

StateMissouriLatestPoor (605 cfs)
RiverBlack RiverRatingObservedEstimated
Updated2022-09-25 22:15 (30 minutes ago)Flood - The river is flooding. Obstacles can be treacherous or deadly. The river should be avoided at this stage for casual trips and definitely for the inexperienced. Trips should be attempted only with protective gear and equipment.Flood(none)4107
Discharge605 cfs (median: 609 cfs)High - The river is high and potentially dangerous, especially for the young and / or inexperienced. Normal stream obstacles are sometimes difficult to navigate. Extended distances can be attempted, but canoe travel may not be advisable.High(none)1970
Height0.86 feetGood - Conditions are ideal for a canoe or kayak. Boats typically will drag on fewer than one-quarter of riffles, if at all, and portages are unnecessary or rare. Normal float lengths can be attempted without a problem.Good(none)982
TrendSteady (falling over 24 hours)Low - River is low but can still be floated. Some riffles are okay but most come with significant dragging and might need a portage. Float lengths should be reduced to accommodate low flow, dragging, and portages.Low(none)650
USGSExternal icon USGS Site (External icon Duck Duck Go Maps)Poor - River is too low to float comfortably. Most or all riffles will drag or must be portaged and some obstacles (such as slick shelf rock) cause undue problems. Avoid the river at this stage for casual paddling trips.Poor(none)339

Trending Data

Plot Image

Trips for Black River (Missouri), Poplar Bluff (07063000)

DateStartEndDistanceConditionDischargeHeightFishingDetails

A total of 0 rows are displayed.

Condition Descriptions

Fishing Conditions

Fish Species

Notes

Classic Trip List

The classic River Trips application is still available for use. It is updated with the new system using a data retrofit. It is no longer maintained. The original River Trips application is no longer updated (as of 1 Dec 2016) but can be checked for errors or for the condition of the data before it was converted to the new system.

Gauge Data Table

ObservationHeightDischargeMaximum
Discharge
Minimum
Discharge
Mean
Discharge
P05P10P20P25P50
(Median)
P75P80P90P95
2022-09-25 22:15 0.86 605 2180 (1985) 186 (1966) 681 268 319 377 423 609 791 844 1200 1410
2022-09-25 21:15 0.86 605 2180 (1985) 186 (1966) 681 268 319 377 423 609 791 844 1200 1410
2022-09-25 20:15 0.86 605 2180 (1985) 186 (1966) 681 268 319 377 423 609 791 844 1200 1410
2022-09-25 19:15 0.86 605 2180 (1985) 186 (1966) 681 268 319 377 423 609 791 844 1200 1410
2022-09-25 18:15 0.87 608 2180 (1985) 186 (1966) 681 268 319 377 423 609 791 844 1200 1410
2022-09-25 17:15 0.87 608 2180 (1985) 186 (1966) 681 268 319 377 423 609 791 844 1200 1410
2022-09-25 16:15 0.88 612 2180 (1985) 186 (1966) 681 268 319 377 423 609 791 844 1200 1410
2022-09-25 15:15 0.88 612 2180 (1985) 186 (1966) 681 268 319 377 423 609 791 844 1200 1410
2022-09-25 14:15 0.89 615 2180 (1985) 186 (1966) 681 268 319 377 423 609 791 844 1200 1410
2022-09-25 13:15 0.89 615 2180 (1985) 186 (1966) 681 268 319 377 423 609 791 844 1200 1410
2022-09-25 12:15 0.90 618 2180 (1985) 186 (1966) 681 268 319 377 423 609 791 844 1200 1410
2022-09-25 11:15 0.90 618 2180 (1985) 186 (1966) 681 268 319 377 423 609 791 844 1200 1410
2022-09-25 10:15 0.91 622 2180 (1985) 186 (1966) 681 268 319 377 423 609 791 844 1200 1410
2022-09-25 09:15 0.92 625 2180 (1985) 186 (1966) 681 268 319 377 423 609 791 844 1200 1410
2022-09-25 08:15 0.91 622 2180 (1985) 186 (1966) 681 268 319 377 423 609 791 844 1200 1410
2022-09-25 07:15 0.92 625 2180 (1985) 186 (1966) 681 268 319 377 423 609 791 844 1200 1410
2022-09-25 06:15 0.92 625 2180 (1985) 186 (1966) 681 268 319 377 423 609 791 844 1200 1410
2022-09-25 05:15 0.92 625 2180 (1985) 186 (1966) 681 268 319 377 423 609 791 844 1200 1410
2022-09-25 04:15 0.92 625 2180 (1985) 186 (1966) 681 268 319 377 423 609 791 844 1200 1410
2022-09-25 03:15 0.92 625 2180 (1985) 186 (1966) 681 268 319 377 423 609 791 844 1200 1410
2022-09-25 02:15 0.92 625 2180 (1985) 186 (1966) 681 268 319 377 423 609 791 844 1200 1410
2022-09-25 01:15 0.93 628 2180 (1985) 186 (1966) 681 268 319 377 423 609 791 844 1200 1410
2022-09-25 00:15 0.93 628 2180 (1985) 186 (1966) 681 268 319 377 423 609 791 844 1200 1410
2022-09-24 23:15 0.94 632 2200 (1985) 200 (1966) 679 278 311 376 430 610 755 813 1140 1610
2022-09-24 22:15 0.94 632 2200 (1985) 200 (1966) 679 278 311 376 430 610 755 813 1140 1610
2022-09-24 21:15 0.95 635 2200 (1985) 200 (1966) 679 278 311 376 430 610 755 813 1140 1610
2022-09-24 20:15 0.96 638 2200 (1985) 200 (1966) 679 278 311 376 430 610 755 813 1140 1610
2022-09-24 19:15 0.97 642 2200 (1985) 200 (1966) 679 278 311 376 430 610 755 813 1140 1610
2022-09-24 18:15 0.97 642 2200 (1985) 200 (1966) 679 278 311 376 430 610 755 813 1140 1610
2022-09-24 17:15 0.97 642 2200 (1985) 200 (1966) 679 278 311 376 430 610 755 813 1140 1610
2022-09-24 16:15 0.98 645 2200 (1985) 200 (1966) 679 278 311 376 430 610 755 813 1140 1610
2022-09-24 15:15 0.99 649 2200 (1985) 200 (1966) 679 278 311 376 430 610 755 813 1140 1610
2022-09-24 14:15 1.01 655 2200 (1985) 200 (1966) 679 278 311 376 430 610 755 813 1140 1610
2022-09-24 13:15 1.03 662 2200 (1985) 200 (1966) 679 278 311 376 430 610 755 813 1140 1610
2022-09-24 12:15 1.04 665 2200 (1985) 200 (1966) 679 278 311 376 430 610 755 813 1140 1610
2022-09-24 11:15 1.05 669 2200 (1985) 200 (1966) 679 278 311 376 430 610 755 813 1140 1610
2022-09-24 10:15 1.07 675 2200 (1985) 200 (1966) 679 278 311 376 430 610 755 813 1140 1610
2022-09-24 09:15 1.08 679 2200 (1985) 200 (1966) 679 278 311 376 430 610 755 813 1140 1610
2022-09-24 08:15 1.10 685 2200 (1985) 200 (1966) 679 278 311 376 430 610 755 813 1140 1610
2022-09-24 07:15 1.11 689 2200 (1985) 200 (1966) 679 278 311 376 430 610 755 813 1140 1610
2022-09-24 06:15 1.11 689 2200 (1985) 200 (1966) 679 278 311 376 430 610 755 813 1140 1610
2022-09-24 05:15 1.11 689 2200 (1985) 200 (1966) 679 278 311 376 430 610 755 813 1140 1610
2022-09-24 04:15 1.12 692 2200 (1985) 200 (1966) 679 278 311 376 430 610 755 813 1140 1610
2022-09-24 03:15 1.12 692 2200 (1985) 200 (1966) 679 278 311 376 430 610 755 813 1140 1610
2022-09-24 02:15 1.11 689 2200 (1985) 200 (1966) 679 278 311 376 430 610 755 813 1140 1610
2022-09-24 01:15 1.12 692 2200 (1985) 200 (1966) 679 278 311 376 430 610 755 813 1140 1610
2022-09-24 00:15 1.12 692 2200 (1985) 200 (1966) 679 278 311 376 430 610 755 813 1140 1610
2022-09-23 23:15 1.11 689 3260 (1965) 226 (1966) 714 278 313 369 404 620 782 866 1130 1970
2022-09-23 22:15 1.12 692 3260 (1965) 226 (1966) 714 278 313 369 404 620 782 866 1130 1970
2022-09-23 21:15 1.12 692 3260 (1965) 226 (1966) 714 278 313 369 404 620 782 866 1130 1970
2022-09-23 20:15 1.11 689 3260 (1965) 226 (1966) 714 278 313 369 404 620 782 866 1130 1970
2022-09-23 19:15 1.12 692 3260 (1965) 226 (1966) 714 278 313 369 404 620 782 866 1130 1970
2022-09-23 18:15 1.12 692 3260 (1965) 226 (1966) 714 278 313 369 404 620 782 866 1130 1970
2022-09-23 17:15 1.11 689 3260 (1965) 226 (1966) 714 278 313 369 404 620 782 866 1130 1970
2022-09-23 16:15 1.11 689 3260 (1965) 226 (1966) 714 278 313 369 404 620 782 866 1130 1970
2022-09-23 15:15 1.12 692 3260 (1965) 226 (1966) 714 278 313 369 404 620 782 866 1130 1970
2022-09-23 14:15 1.12 692 3260 (1965) 226 (1966) 714 278 313 369 404 620 782 866 1130 1970
2022-09-23 13:15 1.12 692 3260 (1965) 226 (1966) 714 278 313 369 404 620 782 866 1130 1970
2022-09-23 12:15 1.12 692 3260 (1965) 226 (1966) 714 278 313 369 404 620 782 866 1130 1970
2022-09-23 11:15 1.12 692 3260 (1965) 226 (1966) 714 278 313 369 404 620 782 866 1130 1970
2022-09-23 10:15 1.12 692 3260 (1965) 226 (1966) 714 278 313 369 404 620 782 866 1130 1970
2022-09-23 09:15 1.13 695 3260 (1965) 226 (1966) 714 278 313 369 404 620 782 866 1130 1970
2022-09-23 08:15 1.13 695 3260 (1965) 226 (1966) 714 278 313 369 404 620 782 866 1130 1970
2022-09-23 07:15 1.13 695 3260 (1965) 226 (1966) 714 278 313 369 404 620 782 866 1130 1970
2022-09-23 06:15 1.13 695 3260 (1965) 226 (1966) 714 278 313 369 404 620 782 866 1130 1970
2022-09-23 05:15 1.13 695 3260 (1965) 226 (1966) 714 278 313 369 404 620 782 866 1130 1970
2022-09-23 04:15 1.12 692 3260 (1965) 226 (1966) 714 278 313 369 404 620 782 866 1130 1970
2022-09-23 03:15 1.13 695 3260 (1965) 226 (1966) 714 278 313 369 404 620 782 866 1130 1970
2022-09-23 02:15 1.12 692 3260 (1965) 226 (1966) 714 278 313 369 404 620 782 866 1130 1970
2022-09-23 01:15 1.12 692 3260 (1965) 226 (1966) 714 278 313 369 404 620 782 866 1130 1970
2022-09-23 00:15 1.14 699 3260 (1965) 226 (1966) 714 278 313 369 404 620 782 866 1130 1970
2022-09-22 23:15 1.14 699 2550 (2016) 246 (2000) 685 276 321 373 401 617 746 812 1270 1620
2022-09-22 22:15 1.13 695 2550 (2016) 246 (2000) 685 276 321 373 401 617 746 812 1270 1620
2022-09-22 21:15 1.14 699 2550 (2016) 246 (2000) 685 276 321 373 401 617 746 812 1270 1620
2022-09-22 20:15 1.13 695 2550 (2016) 246 (2000) 685 276 321 373 401 617 746 812 1270 1620
2022-09-22 19:15 1.13 695 2550 (2016) 246 (2000) 685 276 321 373 401 617 746 812 1270 1620
2022-09-22 18:15 1.14 699 2550 (2016) 246 (2000) 685 276 321 373 401 617 746 812 1270 1620
2022-09-22 17:15 1.14 699 2550 (2016) 246 (2000) 685 276 321 373 401 617 746 812 1270 1620
2022-09-22 16:15 1.15 702 2550 (2016) 246 (2000) 685 276 321 373 401 617 746 812 1270 1620
2022-09-22 15:15 1.15 702 2550 (2016) 246 (2000) 685 276 321 373 401 617 746 812 1270 1620
2022-09-22 14:15 1.15 702 2550 (2016) 246 (2000) 685 276 321 373 401 617 746 812 1270 1620
2022-09-22 13:15 1.16 706 2550 (2016) 246 (2000) 685 276 321 373 401 617 746 812 1270 1620
2022-09-22 12:15 1.15 702 2550 (2016) 246 (2000) 685 276 321 373 401 617 746 812 1270 1620
2022-09-22 11:15 1.15 702 2550 (2016) 246 (2000) 685 276 321 373 401 617 746 812 1270 1620
2022-09-22 10:15 1.15 702 2550 (2016) 246 (2000) 685 276 321 373 401 617 746 812 1270 1620
2022-09-22 09:15 1.15 702 2550 (2016) 246 (2000) 685 276 321 373 401 617 746 812 1270 1620
2022-09-22 08:15 1.14 699 2550 (2016) 246 (2000) 685 276 321 373 401 617 746 812 1270 1620
2022-09-22 07:15 1.14 699 2550 (2016) 246 (2000) 685 276 321 373 401 617 746 812 1270 1620
2022-09-22 06:15 1.14 699 2550 (2016) 246 (2000) 685 276 321 373 401 617 746 812 1270 1620
2022-09-22 05:15 1.15 702 2550 (2016) 246 (2000) 685 276 321 373 401 617 746 812 1270 1620
2022-09-22 04:15 1.14 699 2550 (2016) 246 (2000) 685 276 321 373 401 617 746 812 1270 1620
2022-09-22 03:15 1.14 699 2550 (2016) 246 (2000) 685 276 321 373 401 617 746 812 1270 1620
2022-09-22 02:15 1.13 695 2550 (2016) 246 (2000) 685 276 321 373 401 617 746 812 1270 1620
2022-09-22 01:15 1.13 695 2550 (2016) 246 (2000) 685 276 321 373 401 617 746 812 1270 1620
2022-09-22 00:15 1.14 699 2550 (2016) 246 (2000) 685 276 321 373 401 617 746 812 1270 1620
2022-09-21 23:15 1.13 695 2170 (1985) 245 (2000) 689 281 327 376 390 607 792 855 1260 1770
2022-09-21 22:15 1.12 692 2170 (1985) 245 (2000) 689 281 327 376 390 607 792 855 1260 1770
2022-09-21 21:15 1.13 695 2170 (1985) 245 (2000) 689 281 327 376 390 607 792 855 1260 1770
2022-09-21 20:15 1.13 695 2170 (1985) 245 (2000) 689 281 327 376 390 607 792 855 1260 1770
2022-09-21 19:15 1.13 695 2170 (1985) 245 (2000) 689 281 327 376 390 607 792 855 1260 1770
2022-09-21 18:15 1.13 695 2170 (1985) 245 (2000) 689 281 327 376 390 607 792 855 1260 1770
2022-09-21 17:15 1.13 695 2170 (1985) 245 (2000) 689 281 327 376 390 607 792 855 1260 1770
2022-09-21 16:15 1.13 695 2170 (1985) 245 (2000) 689 281 327 376 390 607 792 855 1260 1770
2022-09-21 15:15 1.13 695 2170 (1985) 245 (2000) 689 281 327 376 390 607 792 855 1260 1770
2022-09-21 14:15 1.12 692 2170 (1985) 245 (2000) 689 281 327 376 390 607 792 855 1260 1770
2022-09-21 13:15 1.13 695 2170 (1985) 245 (2000) 689 281 327 376 390 607 792 855 1260 1770
2022-09-21 12:15 1.14 699 2170 (1985) 245 (2000) 689 281 327 376 390 607 792 855 1260 1770
2022-09-21 11:15 1.13 695 2170 (1985) 245 (2000) 689 281 327 376 390 607 792 855 1260 1770
2022-09-21 10:15 1.12 692 2170 (1985) 245 (2000) 689 281 327 376 390 607 792 855 1260 1770
2022-09-21 09:15 1.13 695 2170 (1985) 245 (2000) 689 281 327 376 390 607 792 855 1260 1770
2022-09-21 08:15 1.13 695 2170 (1985) 245 (2000) 689 281 327 376 390 607 792 855 1260 1770
2022-09-21 07:15 1.13 695 2170 (1985) 245 (2000) 689 281 327 376 390 607 792 855 1260 1770
2022-09-21 06:15 1.13 695 2170 (1985) 245 (2000) 689 281 327 376 390 607 792 855 1260 1770
2022-09-21 05:15 1.14 699 2170 (1985) 245 (2000) 689 281 327 376 390 607 792 855 1260 1770
2022-09-21 04:15 1.14 699 2170 (1985) 245 (2000) 689 281 327 376 390 607 792 855 1260 1770
2022-09-21 03:15 1.13 695 2170 (1985) 245 (2000) 689 281 327 376 390 607 792 855 1260 1770
2022-09-21 02:15 1.14 699 2170 (1985) 245 (2000) 689 281 327 376 390 607 792 855 1260 1770
2022-09-21 01:15 1.13 695 2170 (1985) 245 (2000) 689 281 327 376 390 607 792 855 1260 1770
2022-09-21 00:15 1.14 699 2170 (1985) 245 (2000) 689 281 327 376 390 607 792 855 1260 1770
2022-09-20 23:15 1.14 699 2150 (1985) 246 (2000) 680 268 325 372 391 545 770 865 1280 1800
2022-09-20 22:15 1.14 699 2150 (1985) 246 (2000) 680 268 325 372 391 545 770 865 1280 1800
2022-09-20 21:15 1.14 699 2150 (1985) 246 (2000) 680 268 325 372 391 545 770 865 1280 1800
2022-09-20 20:15 1.14 699 2150 (1985) 246 (2000) 680 268 325 372 391 545 770 865 1280 1800
2022-09-20 19:15 1.14 699 2150 (1985) 246 (2000) 680 268 325 372 391 545 770 865 1280 1800
2022-09-20 18:15 1.13 695 2150 (1985) 246 (2000) 680 268 325 372 391 545 770 865 1280 1800
2022-09-20 17:15 1.14 699 2150 (1985) 246 (2000) 680 268 325 372 391 545 770 865 1280 1800
2022-09-20 16:15 1.14 699 2150 (1985) 246 (2000) 680 268 325 372 391 545 770 865 1280 1800
2022-09-20 15:15 1.13 695 2150 (1985) 246 (2000) 680 268 325 372 391 545 770 865 1280 1800
2022-09-20 14:15 1.14 699 2150 (1985) 246 (2000) 680 268 325 372 391 545 770 865 1280 1800
2022-09-20 13:15 1.14 699 2150 (1985) 246 (2000) 680 268 325 372 391 545 770 865 1280 1800
2022-09-20 12:15 1.14 699 2150 (1985) 246 (2000) 680 268 325 372 391 545 770 865 1280 1800
2022-09-20 11:15 1.15 702 2150 (1985) 246 (2000) 680 268 325 372 391 545 770 865 1280 1800
2022-09-20 10:15 1.14 699 2150 (1985) 246 (2000) 680 268 325 372 391 545 770 865 1280 1800
2022-09-20 09:15 1.14 699 2150 (1985) 246 (2000) 680 268 325 372 391 545 770 865 1280 1800
2022-09-20 08:15 1.14 699 2150 (1985) 246 (2000) 680 268 325 372 391 545 770 865 1280 1800
2022-09-20 07:15 1.14 699 2150 (1985) 246 (2000) 680 268 325 372 391 545 770 865 1280 1800
2022-09-20 06:15 1.14 699 2150 (1985) 246 (2000) 680 268 325 372 391 545 770 865 1280 1800
2022-09-20 05:15 1.14 699 2150 (1985) 246 (2000) 680 268 325 372 391 545 770 865 1280 1800
2022-09-20 04:15 1.14 699 2150 (1985) 246 (2000) 680 268 325 372 391 545 770 865 1280 1800
2022-09-20 03:15 1.14 699 2150 (1985) 246 (2000) 680 268 325 372 391 545 770 865 1280 1800
2022-09-20 02:15 1.14 699 2150 (1985) 246 (2000) 680 268 325 372 391 545 770 865 1280 1800
2022-09-20 01:15 1.16 706 2150 (1985) 246 (2000) 680 268 325 372 391 545 770 865 1280 1800
2022-09-20 00:15 1.14 699 2150 (1985) 246 (2000) 680 268 325 372 391 545 770 865 1280 1800
2022-09-19 23:15 1.15 702 2160 (1985) 247 (1955) 675 272 324 382 399 541 771 804 1230 1930
2022-09-19 22:15 1.14 699 2160 (1985) 247 (1955) 675 272 324 382 399 541 771 804 1230 1930
2022-09-19 21:15 1.15 702 2160 (1985) 247 (1955) 675 272 324 382 399 541 771 804 1230 1930
2022-09-19 20:15 1.14 699 2160 (1985) 247 (1955) 675 272 324 382 399 541 771 804 1230 1930
2022-09-19 19:15 1.15 702 2160 (1985) 247 (1955) 675 272 324 382 399 541 771 804 1230 1930
2022-09-19 18:15 1.14 699 2160 (1985) 247 (1955) 675 272 324 382 399 541 771 804 1230 1930
2022-09-19 17:15 1.15 702 2160 (1985) 247 (1955) 675 272 324 382 399 541 771 804 1230 1930
2022-09-19 16:15 1.13 695 2160 (1985) 247 (1955) 675 272 324 382 399 541 771 804 1230 1930
2022-09-19 15:15 1.15 702 2160 (1985) 247 (1955) 675 272 324 382 399 541 771 804 1230 1930
2022-09-19 14:15 1.15 702 2160 (1985) 247 (1955) 675 272 324 382 399 541 771 804 1230 1930
2022-09-19 13:15 1.16 706 2160 (1985) 247 (1955) 675 272 324 382 399 541 771 804 1230 1930
2022-09-19 12:15 1.15 702 2160 (1985) 247 (1955) 675 272 324 382 399 541 771 804 1230 1930
2022-09-19 11:15 1.15 702 2160 (1985) 247 (1955) 675 272 324 382 399 541 771 804 1230 1930
2022-09-19 10:15 1.15 702 2160 (1985) 247 (1955) 675 272 324 382 399 541 771 804 1230 1930
2022-09-19 09:15 1.15 702 2160 (1985) 247 (1955) 675 272 324 382 399 541 771 804 1230 1930
2022-09-19 08:15 1.14 699 2160 (1985) 247 (1955) 675 272 324 382 399 541 771 804 1230 1930
2022-09-19 07:15 1.14 699 2160 (1985) 247 (1955) 675 272 324 382 399 541 771 804 1230 1930
2022-09-19 06:15 1.14 699 2160 (1985) 247 (1955) 675 272 324 382 399 541 771 804 1230 1930
2022-09-19 05:15 1.15 702 2160 (1985) 247 (1955) 675 272 324 382 399 541 771 804 1230 1930
2022-09-19 04:15 1.14 699 2160 (1985) 247 (1955) 675 272 324 382 399 541 771 804 1230 1930
2022-09-19 03:15 1.15 702 2160 (1985) 247 (1955) 675 272 324 382 399 541 771 804 1230 1930
2022-09-19 02:15 1.14 699 2160 (1985) 247 (1955) 675 272 324 382 399 541 771 804 1230 1930
2022-09-19 01:15 1.14 699 2160 (1985) 247 (1955) 675 272 324 382 399 541 771 804 1230 1930
2022-09-19 00:15 1.14 699 2160 (1985) 247 (1955) 675 272 324 382 399 541 771 804 1230 1930
2022-09-18 23:15 1.14 699 2200 (2008) 250 (1954) 680 266 327 387 399 561 722 806 1250 1880
2022-09-18 22:15 1.14 699 2200 (2008) 250 (1954) 680 266 327 387 399 561 722 806 1250 1880
2022-09-18 21:15 1.14 699 2200 (2008) 250 (1954) 680 266 327 387 399 561 722 806 1250 1880
2022-09-18 20:15 1.15 702 2200 (2008) 250 (1954) 680 266 327 387 399 561 722 806 1250 1880
2022-09-18 19:15 1.15 702 2200 (2008) 250 (1954) 680 266 327 387 399 561 722 806 1250 1880
2022-09-18 18:15 1.15 702 2200 (2008) 250 (1954) 680 266 327 387 399 561 722 806 1250 1880
2022-09-18 17:15 1.13 695 2200 (2008) 250 (1954) 680 266 327 387 399 561 722 806 1250 1880
2022-09-18 16:15 1.13 695 2200 (2008) 250 (1954) 680 266 327 387 399 561 722 806 1250 1880
2022-09-18 15:15 1.14 699 2200 (2008) 250 (1954) 680 266 327 387 399 561 722 806 1250 1880
2022-09-18 14:15 1.14 699 2200 (2008) 250 (1954) 680 266 327 387 399 561 722 806 1250 1880
2022-09-18 13:15 1.14 699 2200 (2008) 250 (1954) 680 266 327 387 399 561 722 806 1250 1880
2022-09-18 12:15 1.14 699 2200 (2008) 250 (1954) 680 266 327 387 399 561 722 806 1250 1880
2022-09-18 11:15 1.14 699 2200 (2008) 250 (1954) 680 266 327 387 399 561 722 806 1250 1880
2022-09-18 10:15 1.14 699 2200 (2008) 250 (1954) 680 266 327 387 399 561 722 806 1250 1880
2022-09-18 09:15 1.13 695 2200 (2008) 250 (1954) 680 266 327 387 399 561 722 806 1250 1880
2022-09-18 08:15 1.14 699 2200 (2008) 250 (1954) 680 266 327 387 399 561 722 806 1250 1880
2022-09-18 07:15 1.13 695 2200 (2008) 250 (1954) 680 266 327 387 399 561 722 806 1250 1880
2022-09-18 06:15 1.13 695 2200 (2008) 250 (1954) 680 266 327 387 399 561 722 806 1250 1880
2022-09-18 05:15 1.13 695 2200 (2008) 250 (1954) 680 266 327 387 399 561 722 806 1250 1880
2022-09-18 04:15 1.13 695 2200 (2008) 250 (1954) 680 266 327 387 399 561 722 806 1250 1880
2022-09-18 03:15 1.12 692 2200 (2008) 250 (1954) 680 266 327 387 399 561 722 806 1250 1880
2022-09-18 02:15 1.13 695 2200 (2008) 250 (1954) 680 266 327 387 399 561 722 806 1250 1880
2022-09-18 01:15 1.12 692 2200 (2008) 250 (1954) 680 266 327 387 399 561 722 806 1250 1880
2022-09-18 00:15 1.11 689 2200 (2008) 250 (1954) 680 266 327 387 399 561 722 806 1250 1880

A total of 191 rows are displayed for years 1949 through 2021.